Terminal Aerodrome Forecast
Issued by NWS Mt. Holly, NJ

Current Version | Previous Version | Text Only | Print | Product List | Glossary On
Versions: 1 2 3 4 5 6 7 8 9 10 11 12 13 14 15 16 17 18 19 20 21 22 23 24 25
106
FTUS41 KPHI 230623 AAA
TAFILG
TAF AMD
KILG 230623Z 2306/2406 22006KT P6SM SCT015 BKN080
      TEMPO 2306/2310 3SM -SHRA BR OVC025
     FM231000 32008KT P6SM SCT035 BKN080
     FM231600 30008KT P6SM SCT050
     FM240000 30004KT P6SM SKC=

USA.gov is the U.S. government's official web portal to all federal, state and local government web resources and services.